createdAt,value
2023-04-19T00:00:02.603Z,27.23
2023-04-19T00:02:31.979Z,30.00
2023-04-19T00:05:00.831Z,32.78
2023-04-19T00:07:29.462Z,28.20
2023-04-19T00:09:58.384Z,28.80
2023-04-19T00:12:28.570Z,22.38
2023-04-19T00:14:59.283Z,28.58
2023-04-19T00:17:28.115Z,25.50
2023-04-19T00:19:57.111Z,21.85
2023-04-19T00:22:25.539Z,27.85
2023-04-19T00:24:54.156Z,20.80
2023-04-19T00:27:22.731Z,26.63
2023-04-19T00:29:52.778Z,32.53
2023-04-19T00:32:21.294Z,25.33
2023-04-19T00:34:50.588Z,30.35
2023-04-19T00:37:19.116Z,20.88
2023-04-19T00:39:47.837Z,27.80
2023-04-19T00:42:16.271Z,27.88
2023-04-19T00:44:45.187Z,24.90
2023-04-19T00:47:15.981Z,34.00
2023-04-19T00:49:44.988Z,31.55
2023-04-19T00:52:13.654Z,27.13
2023-04-19T00:54:45.237Z,25.83
2023-04-19T00:57:14.124Z,24.30
2023-04-19T00:59:43.433Z,28.27
2023-04-19T01:02:11.986Z,26.20
2023-04-19T01:04:42.747Z,36.50
2023-04-19T01:07:11.373Z,22.27
2023-04-19T01:09:42.375Z,25.60
2023-04-19T01:12:10.762Z,27.50
2023-04-19T01:14:39.468Z,33.40
2023-04-19T01:17:09.423Z,25.58
2023-04-19T01:19:40.174Z,26.13
2023-04-19T01:22:11.512Z,28.25
2023-04-19T01:24:42.770Z,22.80
2023-04-19T01:27:11.527Z,27.90
2023-04-19T01:29:39.850Z,29.58
2023-04-19T01:32:08.397Z,28.67
2023-04-19T01:34:36.912Z,29.58
2023-04-19T01:37:05.362Z,26.10
2023-04-19T01:39:34.150Z,27.50
2023-04-19T01:42:04.610Z,29.02
2023-04-19T01:44:33.105Z,22.50
2023-04-19T01:47:01.726Z,30.95
2023-04-19T01:49:30.203Z,24.83
2023-04-19T01:51:58.811Z,25.17
2023-04-19T01:54:27.588Z,25.17
2023-04-19T01:56:56.279Z,25.40
2023-04-19T01:59:26.386Z,26.60
2023-04-19T02:01:55.929Z,25.13
2023-04-19T02:04:24.675Z,21.92
2023-04-19T02:06:53.020Z,21.38
2023-04-19T02:09:21.636Z,22.58
2023-04-19T02:11:50.281Z,21.40
2023-04-19T02:14:18.885Z,32.40
2023-04-19T02:16:50.368Z,28.02
2023-04-19T02:19:19.169Z,27.73
2023-04-19T02:21:47.602Z,22.15
2023-04-19T02:24:16.279Z,30.67
2023-04-19T02:26:44.956Z,25.67
2023-04-19T02:29:13.605Z,21.92
2023-04-19T02:31:42.168Z,26.75
2023-04-19T02:34:12.426Z,23.52
2023-04-19T02:36:41.106Z,25.75
2023-04-19T02:39:09.952Z,22.90
2023-04-19T02:41:39.912Z,20.38
2023-04-19T02:44:08.844Z,24.77
2023-04-19T02:46:37.420Z,27.20
2023-04-19T02:49:06.396Z,29.20
2023-04-19T02:51:37.730Z,29.50
2023-04-19T02:54:08.260Z,34.33
2023-04-19T02:56:37.857Z,25.77
2023-04-19T02:59:07.076Z,22.60
2023-04-19T03:01:35.530Z,27.25
2023-04-19T03:04:04.158Z,31.00
2023-04-19T03:06:33.008Z,26.50
2023-04-19T03:09:03.080Z,30.05
2023-04-19T03:11:31.723Z,30.27
2023-04-19T03:14:00.907Z,23.83
2023-04-19T03:16:31.059Z,29.83
2023-04-19T03:18:59.512Z,29.80
2023-04-19T03:21:29.290Z,31.80
2023-04-19T03:23:58.116Z,31.13
2023-04-19T03:26:28.164Z,26.15
2023-04-19T03:29:02.836Z,28.08
2023-04-19T03:31:31.319Z,29.63
2023-04-19T03:33:59.853Z,25.88
2023-04-19T03:36:28.402Z,29.05
2023-04-19T03:38:56.758Z,29.58
2023-04-19T03:41:28.065Z,27.10
2023-04-19T03:43:57.854Z,30.70
2023-04-19T03:46:26.370Z,29.15
2023-04-19T03:48:55.415Z,26.10
2023-04-19T03:51:23.844Z,33.05
2023-04-19T03:53:52.279Z,28.23
2023-04-19T03:56:21.960Z,31.75
2023-04-19T03:58:54.308Z,26.95
2023-04-19T04:01:24.786Z,27.45
2023-04-19T04:03:53.836Z,30.20
2023-04-19T04:06:22.432Z,26.23
2023-04-19T04:08:50.688Z,31.83
2023-04-19T04:11:19.327Z,29.85
2023-04-19T04:13:49.148Z,28.67
2023-04-19T04:16:19.157Z,31.42
2023-04-19T04:18:47.660Z,32.85
2023-04-19T04:21:16.020Z,31.90
2023-04-19T04:23:44.351Z,30.25
2023-04-19T04:26:14.381Z,35.70
2023-04-19T04:28:43.033Z,31.90
2023-04-19T04:31:13.109Z,32.83
2023-04-19T04:33:43.201Z,35.55
2023-04-19T04:36:12.352Z,31.73
2023-04-19T04:38:41.997Z,30.15
2023-04-19T04:41:10.901Z,28.85
2023-04-19T04:43:40.208Z,36.17
2023-04-19T04:46:10.400Z,37.45
2023-04-19T04:48:39.039Z,40.33
2023-04-19T04:51:09.213Z,37.20
2023-04-19T04:53:38.917Z,29.20
2023-04-19T04:56:09.247Z,37.10
2023-04-19T04:58:37.968Z,31.30
2023-04-19T05:01:08.168Z,38.00
2023-04-19T05:03:36.867Z,34.72
2023-04-19T05:06:05.735Z,35.20
2023-04-19T05:08:35.835Z,37.20
2023-04-19T05:11:05.355Z,35.17
2023-04-19T05:13:34.116Z,29.55
2023-04-19T05:16:02.909Z,31.40
2023-04-19T05:18:32.045Z,33.20
2023-04-19T05:21:03.138Z,35.58
2023-04-19T05:23:31.819Z,34.63
2023-04-19T05:26:01.645Z,38.28
2023-04-19T05:28:30.072Z,34.35
2023-04-19T05:30:58.677Z,33.22
2023-04-19T05:33:27.621Z,30.88
2023-04-19T05:35:58.805Z,31.30
2023-04-19T05:38:27.422Z,26.75
2023-04-19T05:40:56.027Z,36.33
2023-04-19T05:43:26.052Z,29.77
2023-04-19T05:45:54.654Z,32.00
2023-04-19T05:48:25.943Z,32.83
2023-04-19T05:50:56.597Z,35.00
2023-04-19T05:53:25.846Z,34.78
2023-04-19T05:55:54.178Z,27.55
2023-04-19T05:58:23.641Z,24.25
2023-04-19T06:00:54.675Z,28.77
2023-04-19T06:03:23.308Z,29.58
2023-04-19T06:05:52.015Z,27.13
2023-04-19T06:08:20.522Z,31.90
2023-04-19T06:10:54.443Z,33.90
2023-04-19T06:13:25.213Z,25.08
2023-04-19T06:15:55.334Z,32.60
2023-04-19T06:18:23.645Z,28.20
2023-04-19T06:20:52.514Z,32.85
2023-04-19T06:23:21.045Z,28.25
2023-04-19T06:25:49.998Z,30.20
2023-04-19T06:28:18.343Z,26.95
2023-04-19T06:30:47.128Z,24.33
2023-04-19T06:33:17.280Z,30.50
2023-04-19T06:35:45.699Z,27.27
2023-04-19T06:38:13.991Z,25.70
2023-04-19T06:40:42.556Z,23.58
2023-04-19T06:43:10.909Z,28.05
2023-04-19T06:45:39.322Z,29.23
2023-04-19T06:48:08.949Z,31.77
2023-04-19T06:50:39.041Z,25.65
2023-04-19T06:53:07.528Z,32.28
2023-04-19T06:55:36.396Z,30.05
2023-04-19T06:58:07.979Z,30.45
2023-04-19T07:00:36.481Z,26.48
2023-04-19T07:03:05.208Z,28.45
2023-04-19T07:05:34.293Z,31.33
2023-04-19T07:08:04.790Z,30.77
2023-04-19T07:10:33.534Z,33.35
2023-04-19T07:13:01.856Z,28.75
2023-04-19T07:15:30.514Z,24.30
2023-04-19T07:17:59.323Z,25.92
2023-04-19T07:20:27.983Z,27.75
2023-04-19T07:22:56.441Z,27.70
2023-04-19T07:25:26.825Z,25.13
2023-04-19T07:27:55.650Z,21.77
2023-04-19T07:30:24.975Z,25.70
2023-04-19T07:32:53.840Z,32.78
2023-04-19T07:35:22.480Z,24.73
2023-04-19T07:37:51.372Z,23.60
2023-04-19T07:40:20.430Z,28.48
2023-04-19T07:42:50.664Z,32.60
2023-04-19T07:45:19.338Z,25.08
2023-04-19T07:47:47.883Z,30.52
2023-04-19T07:50:17.076Z,23.55
2023-04-19T07:52:45.667Z,23.95
2023-04-19T07:55:14.276Z,28.20
2023-04-19T07:57:46.868Z,27.52
2023-04-19T08:00:18.362Z,29.92
2023-04-19T08:02:47.017Z,22.48
2023-04-19T08:05:17.692Z,27.65
2023-04-19T08:07:47.040Z,29.63
2023-04-19T08:10:17.091Z,26.52
2023-04-19T08:12:57.294Z,27.88
2023-04-19T08:18:06.288Z,27.75
2023-04-19T08:20:35.570Z,32.17
2023-04-19T08:23:18.162Z,35.08
2023-04-19T08:25:51.447Z,32.60
2023-04-19T08:28:20.397Z,31.00
2023-04-19T08:30:50.574Z,32.85
2023-04-19T08:33:19.394Z,29.27
2023-04-19T08:35:47.639Z,32.13
2023-04-19T08:38:16.277Z,30.33
2023-04-19T08:40:48.452Z,29.75
2023-04-19T08:43:19.257Z,32.53
2023-04-19T08:45:50.738Z,28.13
2023-04-19T08:48:19.972Z,30.50
2023-04-19T08:51:04.067Z,36.78
2023-04-19T08:53:35.941Z,38.83
2023-04-19T08:56:17.473Z,28.02
2023-04-19T08:59:03.809Z,33.08
2023-04-19T09:01:40.451Z,35.22
2023-04-19T09:04:34.982Z,34.75
2023-04-19T09:06:58.624Z,35.50
2023-04-19T09:09:37.050Z,31.52
2023-04-19T09:12:19.440Z,33.63
2023-04-19T09:17:21.651Z,28.95
2023-04-19T09:19:51.819Z,33.45
2023-04-19T09:22:20.794Z,39.30
2023-04-19T09:27:31.886Z,32.25
2023-04-19T09:30:02.441Z,32.20
2023-04-19T09:32:48.637Z,39.42
2023-04-19T09:35:17.687Z,33.72
2023-04-19T09:40:31.636Z,31.73
2023-04-19T09:43:14.953Z,37.92
2023-04-19T09:45:49.614Z,35.53
2023-04-19T09:48:20.036Z,34.95
2023-04-19T09:51:01.911Z,30.02
2023-04-19T09:53:35.514Z,32.60
2023-04-19T09:56:06.554Z,40.55
2023-04-19T09:58:49.937Z,32.83
2023-04-19T10:01:23.222Z,32.88
2023-04-19T10:03:55.899Z,34.78
2023-04-19T10:08:57.173Z,36.63
2023-04-19T10:11:30.695Z,35.33
2023-04-19T10:14:03.345Z,37.67
2023-04-19T10:16:33.845Z,36.13
2023-04-19T10:19:07.186Z,39.88
2023-04-19T10:21:38.471Z,33.25
2023-04-19T10:24:08.790Z,32.60
2023-04-19T10:27:11.531Z,35.90
2023-04-19T10:29:59.720Z,35.92
2023-04-19T10:32:32.417Z,32.65
2023-04-19T10:35:10.146Z,38.05
2023-04-19T10:37:42.848Z,34.90
2023-04-19T10:40:13.615Z,36.13
2023-04-19T10:43:16.586Z,34.17
2023-04-19T10:45:44.981Z,38.95
2023-04-19T10:48:39.635Z,33.35
2023-04-19T10:51:16.164Z,40.10
2023-04-19T10:53:49.397Z,40.00
2023-04-19T10:56:19.222Z,36.95
2023-04-19T10:59:24.373Z,36.63
2023-04-19T11:01:55.830Z,39.13
2023-04-19T11:04:46.837Z,37.53
2023-04-19T11:07:18.662Z,38.47
2023-04-19T11:09:48.559Z,39.45
2023-04-19T11:12:18.746Z,43.00
2023-04-19T11:14:49.299Z,38.03
2023-04-19T11:17:19.639Z,42.55
2023-04-19T11:19:56.498Z,36.15
2023-04-19T11:22:32.827Z,40.42
2023-04-19T11:25:08.259Z,42.63
2023-04-19T11:27:37.600Z,41.75
2023-04-19T11:30:08.069Z,39.60
2023-04-19T11:32:37.342Z,38.28
2023-04-19T11:35:07.998Z,52.63
2023-04-19T11:37:39.289Z,43.03
2023-04-19T11:40:10.053Z,51.67
2023-04-19T11:42:39.244Z,39.25
2023-04-19T11:45:18.719Z,55.10
2023-04-19T11:47:55.216Z,54.75
2023-04-19T11:50:35.124Z,43.38
2023-04-19T11:53:14.735Z,39.85
2023-04-19T11:55:48.310Z,39.97
2023-04-19T11:58:32.198Z,36.30
2023-04-19T12:01:07.793Z,39.58
2023-04-19T12:03:37.396Z,39.83
2023-04-19T12:06:09.484Z,46.30
2023-04-19T12:08:40.859Z,50.35
2023-04-19T12:11:09.970Z,43.00
2023-04-19T12:13:40.832Z,38.30
2023-04-19T12:16:10.252Z,39.85
2023-04-19T12:18:50.520Z,36.50
2023-04-19T12:21:29.510Z,38.83
2023-04-19T12:24:01.470Z,46.97
2023-04-19T12:26:31.623Z,44.65
2023-04-19T12:29:02.771Z,48.72
2023-04-19T12:31:33.752Z,44.72
2023-04-19T12:34:02.206Z,41.17
2023-04-19T12:36:30.807Z,44.05
2023-04-19T12:39:00.917Z,42.30
2023-04-19T12:41:29.576Z,41.17
2023-04-19T12:43:57.986Z,44.42
2023-04-19T12:46:27.141Z,39.90
2023-04-19T12:48:55.965Z,38.03
2023-04-19T12:51:24.536Z,41.25
2023-04-19T12:53:54.391Z,35.63
2023-04-19T12:56:24.731Z,43.22
2023-04-19T12:58:53.046Z,43.53
2023-04-19T13:01:22.210Z,39.75
2023-04-19T13:03:51.223Z,41.60
2023-04-19T13:06:19.787Z,37.60
2023-04-19T13:08:48.372Z,38.97
2023-04-19T13:11:23.497Z,43.90
2023-04-19T13:13:54.220Z,40.08
2023-04-19T13:16:23.346Z,38.13
2023-04-19T13:18:52.947Z,40.67
2023-04-19T13:21:21.268Z,36.70
2023-04-19T13:23:49.776Z,45.35
2023-04-19T13:26:18.483Z,45.13
2023-04-19T13:28:46.833Z,54.97
2023-04-19T13:31:17.414Z,38.55
2023-04-19T13:33:46.531Z,39.45
2023-04-19T13:36:15.143Z,41.60
2023-04-19T13:38:43.928Z,38.42
2023-04-19T13:41:12.361Z,30.73
2023-04-19T13:43:41.122Z,43.25
2023-04-19T13:46:09.730Z,47.25
2023-04-19T13:48:39.950Z,38.20
2023-04-19T13:51:09.353Z,38.95
2023-04-19T13:53:37.734Z,38.00
2023-04-19T13:56:09.631Z,39.47
2023-04-19T13:58:38.480Z,43.45
2023-04-19T14:01:07.045Z,35.55
2023-04-19T14:03:35.736Z,38.42
2023-04-19T14:06:06.771Z,65.50
2023-04-19T14:08:35.352Z,44.45
2023-04-19T14:11:03.703Z,40.92
2023-04-19T14:13:32.431Z,39.85
2023-04-19T14:16:01.198Z,46.00
2023-04-19T14:18:29.569Z,37.97
2023-04-19T14:20:58.188Z,45.53
2023-04-19T14:23:28.727Z,45.22
2023-04-19T14:25:57.291Z,36.03
2023-04-19T14:28:26.008Z,47.00
2023-04-19T14:30:54.844Z,51.60
2023-04-19T14:33:23.459Z,46.78
2023-04-19T14:35:51.794Z,49.30
2023-04-19T14:38:20.321Z,44.58
2023-04-19T14:40:50.149Z,44.55
2023-04-19T14:43:18.760Z,45.70
2023-04-19T14:45:50.205Z,47.80
2023-04-19T14:48:21.397Z,43.13
2023-04-19T14:50:51.846Z,42.25
2023-04-19T14:53:20.364Z,41.22
2023-04-19T14:55:50.961Z,43.60
2023-04-19T14:58:19.480Z,42.22
2023-04-19T15:00:48.126Z,50.42
2023-04-19T15:03:17.800Z,41.10
2023-04-19T15:05:46.451Z,44.30
2023-04-19T15:08:29.144Z,55.03
2023-04-19T15:11:00.382Z,43.00
2023-04-19T15:13:30.060Z,48.83
2023-04-19T15:16:00.548Z,46.95
2023-04-19T15:18:30.578Z,41.65
2023-04-19T15:20:58.916Z,45.35
2023-04-19T15:23:27.571Z,50.35
2023-04-19T15:25:56.674Z,46.42
2023-04-19T15:28:27.087Z,42.88
2023-04-19T15:31:00.481Z,43.72
2023-04-19T15:33:29.803Z,49.40
2023-04-19T15:35:59.279Z,50.92
2023-04-19T15:38:29.804Z,45.20
2023-04-19T15:41:00.193Z,41.65
2023-04-19T15:43:30.152Z,49.35
2023-04-19T15:45:58.583Z,44.97
2023-04-19T15:48:27.540Z,43.63
2023-04-19T15:50:56.206Z,41.70
2023-04-19T15:53:24.980Z,44.97
2023-04-19T15:55:55.796Z,47.20
2023-04-19T15:58:25.288Z,46.40
2023-04-19T16:00:55.230Z,48.80
2023-04-19T16:03:24.107Z,40.53
2023-04-19T16:05:52.974Z,43.08
2023-04-19T16:08:21.526Z,43.03
2023-04-19T16:10:51.067Z,45.97
2023-04-19T16:13:19.621Z,37.67
2023-04-19T16:15:48.389Z,37.80
2023-04-19T16:18:18.432Z,44.20
2023-04-19T16:20:47.056Z,49.03
2023-04-19T16:23:15.935Z,48.13
2023-04-19T16:25:44.257Z,38.80
2023-04-19T16:28:12.922Z,44.90
2023-04-19T16:30:41.418Z,42.70
2023-04-19T16:33:10.162Z,45.78
2023-04-19T16:35:40.449Z,37.15
2023-04-19T16:38:09.071Z,40.05
2023-04-19T16:40:37.842Z,40.35
2023-04-19T16:43:06.772Z,39.15
2023-04-19T16:45:35.657Z,38.28
2023-04-19T16:48:04.366Z,38.35
2023-04-19T16:50:33.314Z,38.90
2023-04-19T16:53:03.290Z,43.22
2023-04-19T16:55:31.593Z,43.38
2023-04-19T16:58:02.314Z,41.38
2023-04-19T17:00:30.946Z,41.72
2023-04-19T17:02:59.468Z,40.25
2023-04-19T17:05:28.146Z,43.20
2023-04-19T17:07:56.961Z,36.83
2023-04-19T17:10:28.231Z,34.97
2023-04-19T17:12:56.842Z,35.00
2023-04-19T17:15:26.535Z,32.47
2023-04-19T17:17:54.961Z,34.38
2023-04-19T17:20:23.600Z,32.42
2023-04-19T17:22:53.160Z,37.90
2023-04-19T17:25:22.406Z,33.75
2023-04-19T17:27:52.968Z,33.15
2023-04-19T17:30:21.358Z,33.58
2023-04-19T17:32:50.051Z,31.65
2023-04-19T17:35:18.569Z,31.60
2023-04-19T17:37:50.856Z,30.17
2023-04-19T17:40:20.815Z,32.38
2023-04-19T17:42:49.686Z,34.58
2023-04-19T17:45:19.697Z,32.97
2023-04-19T17:47:49.564Z,32.20
2023-04-19T17:50:19.192Z,28.25
2023-04-19T17:52:48.916Z,31.05
2023-04-19T17:55:17.528Z,28.77
2023-04-19T17:57:47.537Z,30.50
2023-04-19T18:00:17.095Z,26.42
2023-04-19T18:02:47.175Z,30.63
2023-04-19T18:05:16.587Z,27.13
2023-04-19T18:07:45.232Z,22.45
2023-04-19T18:10:13.729Z,23.50
2023-04-19T18:12:42.941Z,28.55
2023-04-19T18:15:12.651Z,22.58
2023-04-19T18:17:41.343Z,25.88
2023-04-19T18:20:13.766Z,30.60
2023-04-19T18:22:42.553Z,26.77
2023-04-19T18:25:11.682Z,28.67
2023-04-19T18:27:40.662Z,24.10
2023-04-19T18:30:10.239Z,34.17
2023-04-19T18:32:38.979Z,28.92
2023-04-19T18:35:12.059Z,28.67
2023-04-19T18:37:42.325Z,26.30
2023-04-19T18:40:12.520Z,31.35
2023-04-19T18:42:41.382Z,28.15
2023-04-19T18:45:11.588Z,25.80
2023-04-19T18:47:40.049Z,36.63
2023-04-19T18:50:12.117Z,26.23
2023-04-19T18:52:40.799Z,24.25
2023-04-19T18:55:11.906Z,26.42
2023-04-19T18:57:41.548Z,28.75
2023-04-19T19:00:11.392Z,22.02
2023-04-19T19:02:43.828Z,28.67
2023-04-19T19:05:16.382Z,21.73
2023-04-19T19:07:46.927Z,26.17
2023-04-19T19:10:21.006Z,26.50
2023-04-19T19:12:50.995Z,22.13
2023-04-19T19:15:19.607Z,19.77
2023-04-19T19:17:50.478Z,20.95
2023-04-19T19:20:21.503Z,19.15
2023-04-19T19:22:53.080Z,15.88
2023-04-19T19:25:21.933Z,23.05
2023-04-19T19:30:29.632Z,17.70
2023-04-19T19:32:58.117Z,21.02
2023-04-19T19:35:28.216Z,18.55
2023-04-19T19:37:56.932Z,25.35
2023-04-19T19:40:25.625Z,20.40
2023-04-19T19:42:56.279Z,14.75
2023-04-19T19:45:28.683Z,12.35
2023-04-19T19:48:00.030Z,21.90
2023-04-19T19:53:02.503Z,15.77
2023-04-19T19:55:31.501Z,15.68
2023-04-19T20:00:44.756Z,15.50
2023-04-19T20:03:14.091Z,17.98
2023-04-19T20:05:44.458Z,20.83
2023-04-19T20:08:15.281Z,10.50
2023-04-19T20:10:46.819Z,15.90
2023-04-19T20:13:15.310Z,17.45
2023-04-19T20:15:45.892Z,13.05
2023-04-19T20:18:14.767Z,20.52
2023-04-19T20:20:52.008Z,23.00
2023-04-19T20:23:22.421Z,21.90
2023-04-19T20:25:51.973Z,17.80
2023-04-19T20:28:21.071Z,14.77
2023-04-19T20:30:49.712Z,18.10
2023-04-19T20:33:18.369Z,18.08
2023-04-19T20:35:46.662Z,18.20
2023-04-19T20:38:16.586Z,20.98
2023-04-19T20:40:45.116Z,17.70
2023-04-19T20:43:16.222Z,16.30
2023-04-19T20:45:44.972Z,22.88
2023-04-19T20:48:20.747Z,14.80
2023-04-19T20:50:50.618Z,18.23
2023-04-19T20:53:21.318Z,20.80
2023-04-19T20:55:49.878Z,25.30
2023-04-19T20:58:18.492Z,13.65
2023-04-19T21:00:47.089Z,20.45
2023-04-19T21:03:16.309Z,19.17
2023-04-19T21:05:44.946Z,14.63
2023-04-19T21:08:15.496Z,17.38
2023-04-19T21:10:46.679Z,20.15
2023-04-19T21:13:15.274Z,19.33
2023-04-19T21:15:44.102Z,22.33
2023-04-19T21:18:12.544Z,20.25
2023-04-19T21:20:41.133Z,18.73
2023-04-19T21:23:10.658Z,20.77
2023-04-19T21:25:39.212Z,20.17
2023-04-19T21:28:11.808Z,18.33
2023-04-19T21:30:43.675Z,18.40
2023-04-19T21:33:12.533Z,20.58
2023-04-19T21:35:41.106Z,15.35
2023-04-19T21:38:09.626Z,14.60
2023-04-19T21:40:39.310Z,18.63
2023-04-19T21:43:09.640Z,16.10
2023-04-19T21:45:38.267Z,16.63
2023-04-19T21:48:07.590Z,16.58
2023-04-19T21:50:36.239Z,17.42
2023-04-19T21:53:04.779Z,15.63
2023-04-19T21:55:34.682Z,13.70
2023-04-19T21:58:04.153Z,21.05
2023-04-19T22:00:33.995Z,21.25
2023-04-19T22:03:02.672Z,16.15
2023-04-19T22:05:31.240Z,22.33
2023-04-19T22:08:01.418Z,17.13
2023-04-19T22:10:31.817Z,19.00
2023-04-19T22:13:00.578Z,17.42
2023-04-19T22:15:28.878Z,16.25
2023-04-19T22:17:59.141Z,15.25
2023-04-19T22:20:28.171Z,19.25
2023-04-19T22:22:56.930Z,17.25
2023-04-19T22:25:25.727Z,16.52
2023-04-19T22:27:54.354Z,19.35
2023-04-19T22:30:22.981Z,14.30
2023-04-19T22:32:52.409Z,18.95
2023-04-19T22:35:23.014Z,20.08
2023-04-19T22:37:51.595Z,9.98
2023-04-19T22:40:20.273Z,15.70
2023-04-19T22:42:48.799Z,23.48
2023-04-19T22:45:17.517Z,14.63
2023-04-19T22:47:46.217Z,13.60
2023-04-19T22:50:15.850Z,16.95
2023-04-19T22:52:46.033Z,14.10
2023-04-19T22:55:14.307Z,13.15
2023-04-19T22:57:43.517Z,14.95
2023-04-19T23:00:12.690Z,14.30
2023-04-19T23:02:41.391Z,18.67
2023-04-19T23:05:11.672Z,17.85
2023-04-19T23:07:43.473Z,18.08
2023-04-19T23:10:15.184Z,16.65
2023-04-19T23:12:43.434Z,11.43
2023-04-19T23:15:14.018Z,14.63
2023-04-19T23:17:42.624Z,14.75
2023-04-19T23:20:12.498Z,11.10
2023-04-19T23:22:41.244Z,14.32
2023-04-19T23:25:11.095Z,24.42
2023-04-19T23:27:41.172Z,14.93
2023-04-19T23:30:10.614Z,11.93
2023-04-19T23:32:39.179Z,14.68
2023-04-19T23:35:08.354Z,17.77
2023-04-19T23:37:37.035Z,11.95
2023-04-19T23:40:08.548Z,15.30
2023-04-19T23:42:37.996Z,11.82
2023-04-19T23:45:09.404Z,13.40
2023-04-19T23:47:37.960Z,14.02
2023-04-19T23:50:08.982Z,11.02
2023-04-19T23:52:37.378Z,11.27
2023-04-19T23:55:07.170Z,11.23
2023-04-19T23:57:37.162Z,13.77
